Camborne, United Kingdom
Current Conditions -  °F | °C
As of 8:50 PM on Saturday 22 Nov 2014 (Local Time) from EGDR Reporting Station
Rain Showers Rain Showers  
Wind Chill: 11°   Ceiling: 8000
Heat Index: 11°   Visibility: 6mi
Dew Point:   Wind: 12mph
Humidity: 82%   Direction: 350°N
Pressure: 29.97"   Gusts: NA
Location:  50.21°N, 5.3°W
Report Text: EGDR 222050Z 35010KT 9999 VCSH FEW024 OVC080 11/08 Q1015 BLU TEMPO SCOT008 GRN
Loading
Personal Weather Stations






























Interactive Weather Map New forecast layout! Learn more

10-Day Weather Forecast

Advertisements
Track Severe Weather on mobile